South Bound Brook, New Jersey
Current Conditions -  °F | °C
As of 11:53 AM on Thursday 18 Dec 2014 (Local Time) from KSMQ Reporting Station
Overcast Overcast  
Wind Chill: 32°   Ceiling: 4100
Heat Index: 40°   Visibility: 10mi
Dew Point: 22°   Wind: 14mph
Humidity: 49%   Direction: 300°WNW
Pressure: 29.99"   Gusts: 26mph
Location:  40.55°N, 74.53°W
Report Text: KSMQ 181653Z AUTO 30012G23KT 10SM OVC041 04/M06 A2999 RMK AO2 SLP157 T00441056
Loading
Personal Weather Stations






























Interactive Weather Map New forecast layout! Learn more

10-Day Weather Forecast

Advertisements
Track Severe Weather on mobile